Time;durP1;ratioP1;P1;durP2;ratioP2;P2;SDS_P1;SDS_P2;PMS_P1;PMS_P2;Temp;Humidity;BMP_temperature;BMP_pressure;BME280_temperature;BME280_humidity;BME280_pressure;Samples;Min_cycle;Max_cycle;Signal;HPM_P1;HPM_P2
2022/04/11 00:00:08;;;;;;;10.60;3.83;;;;;;;;;;5050508;28;20804;-77
2022/04/11 00:02:33;;;;;;;9.95;4.07;;;;;;;;;;5019918;28;20145;-76
2022/04/11 00:04:59;;;;;;;8.82;3.38;;;;;;;;;;5017091;28;20037;-76
2022/04/11 00:07:24;;;;;;;10.98;3.42;;;;;;;;;;5016070;28;20033;-76
2022/04/11 00:09:50;;;;;;;12.10;3.63;;;;;;;;;;5018831;28;20177;-76
2022/04/11 00:12:15;;;;;;;8.25;3.47;;;;;;;;;;5018912;28;20464;-76
2022/04/11 00:14:43;;;;;;;9.35;3.55;;;;;;;;;;5019124;28;20045;-77
2022/04/11 00:17:09;;;;;;;9.02;4.25;;;;;;;;;;5018048;28;20082;-76
2022/04/11 00:19:34;;;;;;;10.43;4.32;;;;;;;;;;5019300;28;20476;-75
2022/04/11 00:22:00;;;;;;;13.18;4.78;;;;;;;;;;5019320;28;20134;-76
2022/04/11 00:24:25;;;;;;;9.70;3.90;;;;;;;;;;5018601;28;20032;-77
2022/04/11 00:26:50;;;;;;;10.52;3.65;;;;;;;;;;5019392;28;20041;-76
2022/04/11 00:29:15;;;;;;;26.15;4.15;;;;;;;;;;5017815;28;20646;-77
2022/04/11 00:31:41;;;;;;;14.75;3.90;;;;;;;;;;5017124;28;20109;-75
2022/04/11 00:34:07;;;;;;;11.40;4.18;;;;;;;;;;5016882;28;20032;-76
2022/04/11 00:36:35;;;;;;;12.82;4.85;;;;;;;;;;5017811;28;20629;-77
2022/04/11 00:39:00;;;;;;;12.55;5.40;;;;;;;;;;5021410;28;20041;-76
2022/04/11 00:41:26;;;;;;;10.27;5.78;;;;;;;;;;5021802;28;20030;-76
2022/04/11 00:43:51;;;;;;;13.88;5.43;;;;;;;;;;5021522;28;20043;-76
2022/04/11 00:46:16;;;;;;;13.00;4.95;;;;;;;;;;5021460;28;20058;-77
2022/04/11 00:48:42;;;;;;;15.05;5.38;;;;;;;;;;5025484;28;20557;-76
2022/04/11 00:51:19;;;;;;;11.18;4.00;;;;;;;;;;5023435;28;20412;-77
2022/04/11 00:53:46;;;;;;;8.05;3.92;;;;;;;;;;5020192;28;20057;-77
2022/04/11 00:56:15;;;;;;;7.00;3.42;;;;;;;;;;5022925;28;20036;-76
2022/04/11 00:58:43;;;;;;;9.40;3.20;;;;;;;;;;5023983;28;20345;-76
2022/04/11 01:01:09;;;;;;;6.78;3.20;;;;;;;;;;5019911;28;20037;-76
2022/04/11 01:03:34;;;;;;;9.90;3.30;;;;;;;;;;5024110;28;20040;-75
2022/04/11 01:06:01;;;;;;;6.78;3.00;;;;;;;;;;5024696;28;20021;-76
2022/04/11 01:08:27;;;;;;;6.72;2.90;;;;;;;;;;5029065;28;20021;-76
2022/04/11 01:10:53;;;;;;;8.38;2.70;;;;;;;;;;5019694;28;22108;-76
2022/04/11 01:13:18;;;;;;;11.13;2.90;;;;;;;;;;5022592;28;20071;-77
2022/04/11 01:16:12;;;;;;;9.65;2.80;;;;;;;;;;5012637;28;20116;-76
2022/04/11 01:18:38;;;;;;;8.90;3.03;;;;;;;;;;5021184;28;20048;-76
2022/04/11 01:21:06;;;;;;;12.35;4.25;;;;;;;;;;5020069;28;20044;-77
2022/04/11 01:23:31;;;;;;;15.82;5.60;;;;;;;;;;5052372;28;20033;-77
2022/04/11 01:25:57;;;;;;;17.58;7.90;;;;;;;;;;5022694;28;20405;-77
2022/04/11 01:28:23;;;;;;;23.08;8.50;;;;;;;;;;5021120;28;20032;-76
2022/04/11 01:30:57;;;;;;;16.95;7.35;;;;;;;;;;5021476;28;20230;-76
2022/04/11 01:33:25;;;;;;;12.15;5.90;;;;;;;;;;5021836;28;20079;-76
2022/04/11 01:35:50;;;;;;;17.55;5.30;;;;;;;;;;5019461;28;20029;-76
2022/04/11 01:38:17;;;;;;;10.20;5.00;;;;;;;;;;5004827;28;20041;-76
2022/04/11 01:40:52;;;;;;;13.88;4.45;;;;;;;;;;5020076;28;20185;-75
2022/04/11 01:43:17;;;;;;;9.10;4.57;;;;;;;;;;5023182;28;20041;-76
2022/04/11 01:45:43;;;;;;;10.48;4.47;;;;;;;;;;5021035;28;20052;-76
2022/04/11 01:48:09;;;;;;;8.40;3.90;;;;;;;;;;5020382;28;20148;-77
2022/04/11 01:50:34;;;;;;;10.30;3.88;;;;;;;;;;5021652;28;20032;-77
2022/04/11 01:53:03;;;;;;;11.23;4.30;;;;;;;;;;5019073;28;20037;-77
2022/04/11 01:55:29;;;;;;;9.98;4.07;;;;;;;;;;5034557;28;20041;-75
2022/04/11 01:57:54;;;;;;;9.00;4.05;;;;;;;;;;5018618;28;20044;-76
2022/04/11 02:00:20;;;;;;;12.07;4.32;;;;;;;;;;5020394;28;20181;-76
2022/04/11 02:02:47;;;;;;;12.00;4.55;;;;;;;;;;5020865;28;20037;-76
2022/04/11 02:05:13;;;;;;;11.55;4.45;;;;;;;;;;5021461;28;20547;-76
2022/04/11 02:07:38;;;;;;;14.45;4.63;;;;;;;;;;5020285;28;20037;-76
2022/04/11 02:10:04;;;;;;;13.48;4.88;;;;;;;;;;5020736;28;20062;-75
2022/04/11 02:12:30;;;;;;;10.32;4.68;;;;;;;;;;5018008;28;20483;-76
2022/04/11 02:14:56;;;;;;;10.10;4.47;;;;;;;;;;5020324;28;20037;-76
2022/04/11 02:17:21;;;;;;;10.10;4.50;;;;;;;;;;5039729;28;20060;-76
2022/04/11 02:19:49;;;;;;;12.23;4.38;;;;;;;;;;5018875;28;20102;-75
2022/04/11 02:22:15;;;;;;;10.35;4.47;;;;;;;;;;5019615;28;20037;-76
2022/04/11 02:24:40;;;;;;;11.32;4.70;;;;;;;;;;5022403;28;20090;-76
2022/04/11 02:27:05;;;;;;;12.32;4.68;;;;;;;;;;5023377;28;20099;-76
2022/04/11 02:29:31;;;;;;;13.38;4.75;;;;;;;;;;5020975;28;20435;-77
2022/04/11 02:31:56;;;;;;;13.75;5.10;;;;;;;;;;5023563;28;20112;-77
2022/04/11 02:34:22;;;;;;;8.65;4.13;;;;;;;;;;5020233;28;20036;-76
2022/04/11 02:36:47;;;;;;;9.93;4.15;;;;;;;;;;5021681;28;20037;-77
2022/04/11 02:39:12;;;;;;;15.20;5.13;;;;;;;;;;5019197;28;20031;-76
2022/04/11 02:41:38;;;;;;;11.02;4.40;;;;;;;;;;5022311;28;20169;-75
2022/04/11 02:44:04;;;;;;;9.07;4.63;;;;;;;;;;5021391;28;20068;-76
2022/04/11 02:46:29;;;;;;;12.32;4.50;;;;;;;;;;5038018;28;20099;-76
2022/04/11 02:48:55;;;;;;;12.98;4.18;;;;;;;;;;5020230;28;20124;-75
2022/04/11 02:51:20;;;;;;;8.45;4.10;;;;;;;;;;5018365;28;20172;-75
2022/04/11 02:53:47;;;;;;;11.73;4.15;;;;;;;;;;5020423;28;20044;-77
2022/04/11 02:56:14;;;;;;;12.55;4.10;;;;;;;;;;5019748;28;20040;-76
2022/04/11 02:58:40;;;;;;;10.40;3.90;;;;;;;;;;5019452;28;20073;-76
2022/04/11 03:01:05;;;;;;;7.75;3.20;;;;;;;;;;5018817;28;20569;-76
2022/04/11 03:03:30;;;;;;;11.88;3.92;;;;;;;;;;5019011;28;21852;-76
2022/04/11 03:05:56;;;;;;;11.00;3.65;;;;;;;;;;5018830;28;20044;-76
2022/04/11 03:08:21;;;;;;;8.05;3.60;;;;;;;;;;5019155;28;20488;-74
2022/04/11 03:10:49;;;;;;;11.00;4.15;;;;;;;;;;5018033;28;20166;-76
2022/04/11 03:13:14;;;;;;;10.30;4.13;;;;;;;;;;5020359;28;20037;-75
2022/04/11 03:15:39;;;;;;;11.93;5.43;;;;;;;;;;5018777;28;20055;-76
2022/04/11 03:18:08;;;;;;;14.88;6.50;;;;;;;;;;5018673;28;20397;-76
2022/04/11 03:20:34;;;;;;;13.77;6.22;;;;;;;;;;5019647;28;20041;-76
2022/04/11 03:22:59;;;;;;;16.05;8.40;;;;;;;;;;5020594;28;20618;-76
2022/04/11 03:25:27;;;;;;;20.80;9.88;;;;;;;;;;5017633;28;20170;-77
2022/04/11 03:27:52;;;;;;;29.75;11.40;;;;;;;;;;5019960;28;20144;-76
2022/04/11 03:30:17;;;;;;;22.40;11.45;;;;;;;;;;5018600;28;20044;-77
2022/04/11 03:32:42;;;;;;;22.75;11.00;;;;;;;;;;5017864;28;20025;-76
2022/04/11 03:35:09;;;;;;;22.17;10.82;;;;;;;;;;5027280;28;20040;-76
2022/04/11 03:37:35;;;;;;;20.73;10.32;;;;;;;;;;5033383;28;20029;-76
2022/04/11 03:40:03;;;;;;;19.35;10.35;;;;;;;;;;5018179;28;20024;-75
2022/04/11 03:42:31;;;;;;;23.23;11.15;;;;;;;;;;5018870;28;20842;-77
2022/04/11 03:44:57;;;;;;;19.00;9.70;;;;;;;;;;5019860;28;20176;-77
2022/04/11 03:47:22;;;;;;;17.25;8.95;;;;;;;;;;5033635;28;20076;-78
2022/04/11 03:49:49;;;;;;;21.67;10.02;;;;;;;;;;5017565;28;20048;-76
2022/04/11 03:52:15;;;;;;;20.23;9.32;;;;;;;;;;5018509;28;20079;-75
2022/04/11 03:54:40;;;;;;;22.00;10.50;;;;;;;;;;5017500;28;20571;-76
2022/04/11 03:57:06;;;;;;;17.90;9.60;;;;;;;;;;5016224;28;20025;-76
2022/04/11 03:59:31;;;;;;;19.52;9.70;;;;;;;;;;5016982;28;20025;-76
2022/04/11 04:01:57;;;;;;;21.33;9.43;;;;;;;;;;5048888;28;20029;-76
2022/04/11 04:04:22;;;;;;;20.13;9.00;;;;;;;;;;5017896;28;20106;-76
2022/04/11 04:06:47;;;;;;;17.00;8.52;;;;;;;;;;5020189;28;20345;-75
2022/04/11 04:09:13;;;;;;;15.75;8.40;;;;;;;;;;5019432;28;20057;-76
2022/04/11 04:11:38;;;;;;;19.75;9.02;;;;;;;;;;5016080;28;20040;-76
2022/04/11 04:14:03;;;;;;;16.75;8.05;;;;;;;;;;5022732;28;20329;-75
2022/04/11 04:16:29;;;;;;;16.38;7.50;;;;;;;;;;5022110;28;20029;-77
2022/04/11 04:18:54;;;;;;;15.68;7.60;;;;;;;;;;5022520;28;20033;-75
2022/04/11 04:21:20;;;;;;;15.65;7.78;;;;;;;;;;5020937;28;20038;-75
2022/04/11 04:23:47;;;;;;;19.20;7.63;;;;;;;;;;5021885;28;20055;-75
2022/04/11 04:26:13;;;;;;;17.60;7.40;;;;;;;;;;5023067;28;20033;-75
2022/04/11 04:28:38;;;;;;;19.92;8.23;;;;;;;;;;5024986;28;20323;-74
2022/04/11 04:31:08;;;;;;;14.70;7.47;;;;;;;;;;5020135;28;20021;-75
2022/04/11 04:33:34;;;;;;;18.33;8.50;;;;;;;;;;5023043;28;20468;-76
2022/04/11 04:35:59;;;;;;;19.63;8.15;;;;;;;;;;5021807;28;20036;-75
2022/04/11 04:38:25;;;;;;;19.95;9.35;;;;;;;;;;5020930;28;20030;-75
2022/04/11 04:40:51;;;;;;;20.05;9.90;;;;;;;;;;5022216;28;20036;-75
2022/04/11 04:43:16;;;;;;;23.55;10.18;;;;;;;;;;5023215;28;20483;-75
2022/04/11 04:45:41;;;;;;;23.58;10.30;;;;;;;;;;5021935;28;20025;-76
2022/04/11 04:48:07;;;;;;;18.58;10.57;;;;;;;;;;5022139;28;20069;-75
2022/04/11 04:50:38;;;;;;;19.98;10.38;;;;;;;;;;5012622;28;20029;-76
2022/04/11 04:53:04;;;;;;;21.30;10.48;;;;;;;;;;5024082;28;20411;-76
2022/04/11 04:55:29;;;;;;;20.17;9.93;;;;;;;;;;5021981;28;20029;-75
2022/04/11 04:57:55;;;;;;;18.52;10.13;;;;;;;;;;5053014;28;21816;-76
2022/04/11 05:00:23;;;;;;;17.85;9.50;;;;;;;;;;5021526;28;20757;-76
2022/04/11 05:02:49;;;;;;;21.20;10.20;;;;;;;;;;5020988;28;20029;-76
2022/04/11 05:05:15;;;;;;;18.25;10.13;;;;;;;;;;5022415;28;20316;-76
2022/04/11 05:07:41;;;;;;;21.27;10.73;;;;;;;;;;5021794;28;20049;-75
2022/04/11 05:10:08;;;;;;;17.90;9.55;;;;;;;;;;5021420;28;20065;-75
2022/04/11 05:12:44;;;;;;;17.58;8.98;;;;;;;;;;5020464;28;20049;-76
2022/04/11 05:15:16;;;;;;;14.23;8.65;;;;;;;;;;5020649;28;20064;-75
2022/04/11 05:17:41;;;;;;;13.70;8.15;;;;;;;;;;5022051;28;20060;-75
2022/04/11 05:20:08;;;;;;;14.70;8.50;;;;;;;;;;5021906;28;20386;-75
2022/04/11 05:22:34;;;;;;;18.45;8.55;;;;;;;;;;5020141;28;20055;-75
2022/04/11 05:24:59;;;;;;;14.93;7.43;;;;;;;;;;5022307;28;20029;-75
2022/04/11 05:27:25;;;;;;;12.63;7.30;;;;;;;;;;5020338;28;20037;-75
2022/04/11 05:29:50;;;;;;;13.65;7.65;;;;;;;;;;5022048;28;20120;-75
2022/04/11 05:32:16;;;;;;;14.35;8.05;;;;;;;;;;5019873;28;20232;-76
2022/04/11 05:34:43;;;;;;;12.82;7.68;;;;;;;;;;5023694;28;21628;-75
2022/04/11 05:37:09;;;;;;;13.38;8.05;;;;;;;;;;5023354;28;20388;-76
2022/04/11 05:39:34;;;;;;;13.88;8.23;;;;;;;;;;5044512;28;21931;-76
2022/04/11 05:41:59;;;;;;;13.68;8.27;;;;;;;;;;5019057;28;20843;-76
2022/04/11 05:44:25;;;;;;;14.25;7.95;;;;;;;;;;5038019;28;20051;-75
2022/04/11 05:46:55;;;;;;;13.50;7.82;;;;;;;;;;5024101;28;20578;-74
2022/04/11 05:49:21;;;;;;;14.60;7.88;;;;;;;;;;5023085;28;21889;-74
2022/04/11 05:51:46;;;;;;;14.48;8.00;;;;;;;;;;5019501;28;20427;-76
2022/04/11 05:54:11;;;;;;;18.48;8.35;;;;;;;;;;5018087;28;21780;-74
2022/04/11 05:56:42;;;;;;;14.43;8.40;;;;;;;;;;5020186;28;20033;-74
2022/04/11 05:59:08;;;;;;;18.65;8.73;;;;;;;;;;5017239;28;20045;-75
2022/04/11 06:01:34;;;;;;;15.55;8.32;;;;;;;;;;5019820;28;20033;-76
2022/04/11 06:04:00;;;;;;;15.02;9.18;;;;;;;;;;5017958;28;20033;-77
2022/04/11 06:06:26;;;;;;;13.65;8.95;;;;;;;;;;5018679;28;20077;-78
2022/04/11 06:08:51;;;;;;;16.23;8.88;;;;;;;;;;5051741;28;20041;-75
2022/04/11 06:11:17;;;;;;;18.40;8.90;;;;;;;;;;5019762;28;20034;-75
2022/04/11 06:13:45;;;;;;;14.27;8.48;;;;;;;;;;5017778;28;20223;-75
2022/04/11 06:16:13;;;;;;;21.85;9.55;;;;;;;;;;5018167;28;20076;-76
2022/04/11 06:18:39;;;;;;;17.70;9.23;;;;;;;;;;5019580;28;20060;-75
2022/04/11 06:21:05;;;;;;;22.70;9.35;;;;;;;;;;5019877;28;20574;-75
2022/04/11 06:23:30;;;;;;;16.27;9.40;;;;;;;;;;5019964;28;20214;-75
2022/04/11 06:25:56;;;;;;;19.55;9.93;;;;;;;;;;5020049;28;20056;-75
2022/04/11 06:28:21;;;;;;;18.30;9.23;;;;;;;;;;5019297;28;20284;-76
2022/04/11 06:30:47;;;;;;;25.75;9.85;;;;;;;;;;5020211;28;20524;-74
2022/04/11 06:33:12;;;;;;;16.40;9.38;;;;;;;;;;5017394;28;20212;-74
2022/04/11 06:35:38;;;;;;;18.92;9.82;;;;;;;;;;5004374;28;20040;-75
2022/04/11 06:38:03;;;;;;;16.83;8.93;;;;;;;;;;5020260;28;20068;-74
2022/04/11 06:40:28;;;;;;;14.93;9.20;;;;;;;;;;5018890;28;20069;-75
2022/04/11 06:42:53;;;;;;;20.65;9.52;;;;;;;;;;5036691;28;20096;-75
2022/04/11 06:45:19;;;;;;;19.20;9.73;;;;;;;;;;5049728;28;20037;-75
2022/04/11 06:47:46;;;;;;;22.42;10.02;;;;;;;;;;5021935;28;20032;-75
2022/04/11 06:50:11;;;;;;;19.70;9.55;;;;;;;;;;5023203;28;20025;-75
2022/04/11 06:52:36;;;;;;;19.13;10.82;;;;;;;;;;5021495;28;20048;-75
2022/04/11 06:55:02;;;;;;;20.05;9.80;;;;;;;;;;5018396;28;20044;-75
2022/04/11 06:57:28;;;;;;;20.70;9.68;;;;;;;;;;5020593;28;20736;-76
2022/04/11 06:59:53;;;;;;;19.60;9.88;;;;;;;;;;5019349;28;20461;-77
2022/04/11 07:02:21;;;;;;;18.15;9.65;;;;;;;;;;5018684;28;20086;-76
2022/04/11 07:04:46;;;;;;;19.77;10.32;;;;;;;;;;5018353;28;22209;-76
2022/04/11 07:07:12;;;;;;;16.77;9.02;;;;;;;;;;5035235;28;20480;-76
2022/04/11 07:09:39;;;;;;;16.58;8.20;;;;;;;;;;5018524;28;20052;-76
2022/04/11 07:12:06;;;;;;;14.30;8.55;;;;;;;;;;5017197;28;20521;-75
2022/04/11 07:14:33;;;;;;;16.80;9.68;;;;;;;;;;5016945;28;20094;-76
2022/04/11 07:16:59;;;;;;;15.15;9.18;;;;;;;;;;5020520;28;20479;-75
2022/04/11 07:19:24;;;;;;;13.57;8.38;;;;;;;;;;5018695;28;20168;-76
2022/04/11 07:21:52;;;;;;;16.52;8.75;;;;;;;;;;5017683;28;20036;-75
2022/04/11 07:24:17;;;;;;;17.25;9.82;;;;;;;;;;5019626;28;20040;-75
2022/04/11 07:26:42;;;;;;;18.10;9.70;;;;;;;;;;5018447;28;20033;-72
2022/04/11 07:29:08;;;;;;;15.95;9.45;;;;;;;;;;5006046;28;20033;-76
2022/04/11 07:31:34;;;;;;;14.35;9.07;;;;;;;;;;5017688;28;20187;-75
2022/04/11 07:34:01;;;;;;;16.27;9.00;;;;;;;;;;5018165;28;20589;-76
2022/04/11 07:36:28;;;;;;;15.77;8.60;;;;;;;;;;5032424;28;20538;-76
2022/04/11 07:38:53;;;;;;;16.52;8.95;;;;;;;;;;5020256;28;20030;-76
2022/04/11 07:41:19;;;;;;;15.10;8.20;;;;;;;;;;5018538;28;20114;-75
2022/04/11 07:43:44;;;;;;;13.63;9.05;;;;;;;;;;5020178;28;21149;-75
2022/04/11 07:46:10;;;;;;;16.60;8.90;;;;;;;;;;5020290;28;20076;-76
2022/04/11 07:48:35;;;;;;;14.00;7.95;;;;;;;;;;5022196;28;20033;-75
2022/04/11 07:51:01;;;;;;;14.68;7.97;;;;;;;;;;5018956;28;20091;-75
2022/04/11 07:53:27;;;;;;;13.93;8.07;;;;;;;;;;5021340;28;20052;-75
2022/04/11 07:55:52;;;;;;;15.30;7.35;;;;;;;;;;5019262;28;20032;-75
2022/04/11 07:58:18;;;;;;;14.00;7.32;;;;;;;;;;5020040;28;20029;-75
2022/04/11 08:00:44;;;;;;;13.18;7.13;;;;;;;;;;5042195;28;20117;-75
2022/04/11 08:03:10;;;;;;;10.82;7.38;;;;;;;;;;5019512;28;21873;-74
2022/04/11 08:05:35;;;;;;;11.05;5.65;;;;;;;;;;5017521;28;20036;-74
2022/04/11 08:08:01;;;;;;;13.15;6.30;;;;;;;;;;5022358;28;20033;-76
2022/04/11 08:10:27;;;;;;;12.15;6.55;;;;;;;;;;5015829;28;20354;-76
2022/04/11 08:12:53;;;;;;;11.30;6.50;;;;;;;;;;5033122;28;20542;-74
2022/04/11 08:15:19;;;;;;;11.77;6.20;;;;;;;;;;5018895;28;20025;-75
2022/04/11 08:17:44;;;;;;;10.68;5.95;;;;;;;;;;5019292;28;20040;-74
2022/04/11 08:20:10;;;;;;;11.10;5.68;;;;;;;;;;5019997;28;20108;-74
2022/04/11 08:22:36;;;;;;;9.18;5.25;;;;;;;;;;5018839;28;20492;-74
2022/04/11 08:25:01;;;;;;;8.30;4.82;;;;;;;;;;5018302;28;20472;-76
2022/04/11 08:27:29;;;;;;;11.55;5.85;;;;;;;;;;5020936;28;20123;-74
2022/04/11 08:29:54;;;;;;;9.68;5.10;;;;;;;;;;5017293;28;20041;-75
2022/04/11 08:32:20;;;;;;;10.10;5.10;;;;;;;;;;5019199;28;20092;-75
2022/04/11 08:34:45;;;;;;;13.27;5.60;;;;;;;;;;5017475;28;20041;-74
2022/04/11 08:37:10;;;;;;;10.70;4.30;;;;;;;;;;5017137;28;20284;-74
2022/04/11 08:39:36;;;;;;;10.73;5.30;;;;;;;;;;5018545;28;20191;-75
2022/04/11 08:42:01;;;;;;;9.77;4.82;;;;;;;;;;5018013;28;20036;-75
2022/04/11 08:44:28;;;;;;;10.82;4.75;;;;;;;;;;5018520;28;20032;-75
2022/04/11 08:47:01;;;;;;;7.55;4.10;;;;;;;;;;5050679;28;20030;-75
2022/04/11 08:49:28;;;;;;;9.88;4.45;;;;;;;;;;5036347;28;20156;-75
2022/04/11 08:51:53;;;;;;;9.13;3.97;;;;;;;;;;5016052;28;20135;-75
2022/04/11 08:54:19;;;;;;;6.00;3.70;;;;;;;;;;5017523;28;20028;-74
2022/04/11 08:56:44;;;;;;;9.50;4.70;;;;;;;;;;5016016;28;20098;-72
2022/04/11 08:59:10;;;;;;;6.90;3.90;;;;;;;;;;5023495;28;20489;-71
2022/04/11 09:01:36;;;;;;;8.30;4.13;;;;;;;;;;5022159;28;20167;-73
2022/04/11 09:04:02;;;;;;;10.10;4.47;;;;;;;;;;5035834;28;20658;-69
2022/04/11 09:06:31;;;;;;;8.00;4.40;;;;;;;;;;5019819;28;20038;-72
2022/04/11 09:08:58;;;;;;;7.63;4.43;;;;;;;;;;5019214;28;20053;-71
2022/04/11 09:11:33;;;;;;;8.13;4.78;;;;;;;;;;5023691;28;20484;-71
2022/04/11 09:14:00;;;;;;;8.73;4.07;;;;;;;;;;5020813;28;20296;-72
2022/04/11 09:16:26;;;;;;;7.28;3.90;;;;;;;;;;5022224;28;20140;-72
2022/04/11 09:18:55;;;;;;;9.93;4.13;;;;;;;;;;5019355;28;20029;-68
2022/04/11 09:21:22;;;;;;;7.15;3.90;;;;;;;;;;5054359;28;20044;-69
2022/04/11 09:23:48;;;;;;;8.65;4.13;;;;;;;;;;5020696;28;20048;-70
2022/04/11 09:26:14;;;;;;;8.75;3.88;;;;;;;;;;5020776;28;20069;-71
2022/04/11 09:28:39;;;;;;;8.57;4.13;;;;;;;;;;5018904;28;20087;-71
2022/04/11 09:31:06;;;;;;;12.43;4.45;;;;;;;;;;5018859;28;20151;-70
2022/04/11 09:33:37;;;;;;;8.23;4.40;;;;;;;;;;5038773;28;20025;-70
2022/04/11 09:36:05;;;;;;;9.32;3.80;;;;;;;;;;5019296;28;20114;-70
2022/04/11 09:38:37;;;;;;;8.20;3.88;;;;;;;;;;5020844;28;20564;-71
2022/04/11 09:41:06;;;;;;;8.95;4.35;;;;;;;;;;5020389;28;20036;-70
2022/04/11 09:43:31;;;;;;;7.35;3.70;;;;;;;;;;5019668;28;20634;-70
2022/04/11 09:45:59;;;;;;;7.57;4.00;;;;;;;;;;5019576;28;20144;-70
2022/04/11 09:48:26;;;;;;;8.65;3.92;;;;;;;;;;5020589;28;20503;-70
2022/04/11 09:50:52;;;;;;;9.02;4.05;;;;;;;;;;5049895;28;20025;-70
2022/04/11 09:53:19;;;;;;;8.30;4.20;;;;;;;;;;5019414;28;20024;-68
2022/04/11 09:55:46;;;;;;;6.10;4.13;;;;;;;;;;5020323;28;20089;-69
2022/04/11 09:58:12;;;;;;;8.43;4.57;;;;;;;;;;5018850;28;20025;-70
2022/04/11 10:00:39;;;;;;;9.40;4.25;;;;;;;;;;5020440;28;20111;-69
2022/04/11 10:03:05;;;;;;;11.25;4.57;;;;;;;;;;5018758;28;20033;-68
2022/04/11 10:05:38;;;;;;;9.50;4.70;;;;;;;;;;5019323;28;20033;-69
2022/04/11 10:08:10;;;;;;;7.18;4.28;;;;;;;;;;5019417;28;20740;-69
2022/04/11 10:10:41;;;;;;;13.23;5.18;;;;;;;;;;5020190;28;20045;-69
2022/04/11 10:13:07;;;;;;;10.20;5.57;;;;;;;;;;5021798;28;20142;-68
2022/04/11 10:15:32;;;;;;;8.05;4.90;;;;;;;;;;5049632;28;20134;-69
2022/04/11 10:17:58;;;;;;;10.15;4.72;;;;;;;;;;5019867;28;20476;-68
2022/04/11 10:20:24;;;;;;;8.07;5.30;;;;;;;;;;5019539;28;20134;-69
2022/04/11 10:23:10;;;;;;;8.85;5.10;;;;;;;;;;5018115;28;20518;-69
2022/04/11 10:25:38;;;;;;;9.70;5.63;;;;;;;;;;5020657;28;20132;-70
2022/04/11 10:28:14;;;;;;;10.85;5.50;;;;;;;;;;5017664;28;20029;-70
2022/04/11 10:30:42;;;;;;;9.27;5.72;;;;;;;;;;5017363;28;20085;-71
2022/04/11 10:33:07;;;;;;;9.70;6.28;;;;;;;;;;5017447;28;20484;-70
2022/04/11 10:35:39;;;;;;;8.90;5.47;;;;;;;;;;5018410;28;20195;-70
2022/04/11 10:38:04;;;;;;;;;;;;;;;;;;5018254;28;20513;-69
2022/04/11 10:40:30;;;;;;;10.68;6.10;;;;;;;;;;5017316;28;19912;-69
2022/04/11 10:43:10;;;;;;;11.05;5.40;;;;;;;;;;5020550;28;20040;-69
2022/04/11 10:45:42;;;;;;;11.02;5.85;;;;;;;;;;5017999;28;20087;-69
2022/04/11 10:48:09;;;;;;;11.55;5.60;;;;;;;;;;5019443;28;20472;-69
2022/04/11 10:50:42;;;;;;;11.35;6.35;;;;;;;;;;5018663;28;20021;-70
2022/04/11 10:53:17;;;;;;;10.27;5.95;;;;;;;;;;5018966;28;20036;-69
2022/04/11 10:55:55;;;;;;;10.15;6.10;;;;;;;;;;5019165;28;20027;-68
2022/04/11 10:58:22;;;;;;;12.25;6.75;;;;;;;;;;5018097;28;20029;-68
2022/04/11 11:00:48;;;;;;;12.40;6.45;;;;;;;;;;5017975;28;20544;-69
2022/04/11 11:03:16;;;;;;;10.27;6.10;;;;;;;;;;5022946;28;20057;-71
2022/04/11 11:05:45;;;;;;;10.50;6.70;;;;;;;;;;5016909;28;20117;-70
2022/04/11 11:08:13;;;;;;;13.38;6.32;;;;;;;;;;5019511;28;20079;-68
2022/04/11 11:10:46;;;;;;;9.57;6.50;;;;;;;;;;5019174;28;20111;-70
2022/04/11 11:13:23;;;;;;;9.80;6.50;;;;;;;;;;5020299;28;20207;-69
2022/04/11 11:15:48;;;;;;;8.88;6.53;;;;;;;;;;5036290;28;21878;-69
2022/04/11 11:18:14;;;;;;;12.43;7.38;;;;;;;;;;5016277;28;20068;-70
2022/04/11 11:20:52;;;;;;;9.30;6.72;;;;;;;;;;5018655;28;20113;-71
2022/04/11 11:23:31;;;;;;;12.77;7.38;;;;;;;;;;5018473;28;20081;-69
2022/04/11 11:26:06;;;;;;;12.07;7.53;;;;;;;;;;5017458;28;20025;-70
2022/04/11 11:28:31;;;;;;;13.23;8.40;;;;;;;;;;5018144;28;20040;-69
2022/04/11 11:30:56;;;;;;;11.35;7.57;;;;;;;;;;5037120;28;20124;-68
2022/04/11 11:33:21;;;;;;;10.05;7.50;;;;;;;;;;5033784;28;20072;-69
2022/04/11 11:35:48;;;;;;;10.25;7.70;;;;;;;;;;5018633;28;20102;-69
2022/04/11 11:38:14;;;;;;;13.75;8.40;;;;;;;;;;5019113;28;20059;-70
2022/04/11 11:40:45;;;;;;;11.82;7.95;;;;;;;;;;5018079;28;20032;-70
2022/04/11 11:43:11;;;;;;;10.70;7.47;;;;;;;;;;5017884;28;20452;-71
2022/04/11 11:45:41;;;;;;;13.57;7.18;;;;;;;;;;5018888;28;20063;-70
2022/04/11 11:48:20;;;;;;;12.10;8.23;;;;;;;;;;5018939;28;20056;-70
2022/04/11 11:50:46;;;;;;;11.48;8.00;;;;;;;;;;5018803;28;20060;-70
2022/04/11 11:53:13;;;;;;;9.90;8.23;;;;;;;;;;5016926;28;20192;-69
2022/04/11 11:55:49;;;;;;;13.07;8.23;;;;;;;;;;5017012;28;20419;-70
2022/04/11 11:58:15;;;;;;;11.57;7.97;;;;;;;;;;5018839;28;20498;-70
2022/04/11 12:00:44;;;;;;;11.25;8.38;;;;;;;;;;5032633;28;20037;-69
2022/04/11 12:06:01;;;;;;;12.68;8.32;;;;;;;;;;5019165;28;20029;-71
2022/04/11 12:08:30;;;;;;;13.07;8.68;;;;;;;;;;5016904;28;20036;-70
2022/04/11 12:10:57;;;;;;;10.40;8.45;;;;;;;;;;5017053;28;20692;-70
2022/04/11 12:13:27;;;;;;;12.40;8.77;;;;;;;;;;5016686;28;20554;-69
2022/04/11 12:15:53;;;;;;;13.10;9.10;;;;;;;;;;5016277;28;20710;-69
2022/04/11 12:18:20;;;;;;;13.50;8.80;;;;;;;;;;5018219;28;21693;-69
2022/04/11 12:20:47;;;;;;;11.02;8.60;;;;;;;;;;5017555;28;20353;-71
2022/04/11 12:23:13;;;;;;;12.57;9.20;;;;;;;;;;5016492;28;20433;-71
2022/04/11 12:25:50;;;;;;;12.25;8.85;;;;;;;;;;5017095;28;20473;-73
2022/04/11 12:28:15;;;;;;;11.75;8.27;;;;;;;;;;5018272;28;20040;-73
2022/04/11 12:30:47;;;;;;;11.70;8.90;;;;;;;;;;5016215;28;20017;-73
2022/04/11 12:33:28;;;;;;;12.82;8.55;;;;;;;;;;5020495;28;20025;-74
2022/04/11 12:36:12;;;;;;;11.00;8.07;;;;;;;;;;5022127;28;20090;-74
2022/04/11 12:38:52;;;;;;;11.10;9.05;;;;;;;;;;5021302;28;20029;-69
2022/04/11 12:41:36;;;;;;;10.70;8.65;;;;;;;;;;5052189;28;20032;-73
2022/04/11 12:44:12;;;;;;;14.13;9.88;;;;;;;;;;5021525;28;20480;-73
2022/04/11 12:46:44;;;;;;;11.55;9.10;;;;;;;;;;5022532;28;20021;-74
2022/04/11 12:49:14;;;;;;;11.32;9.02;;;;;;;;;;5051592;28;20043;-73
2022/04/11 12:51:40;;;;;;;12.35;9.45;;;;;;;;;;5008854;28;20017;-72
2022/04/11 12:54:05;;;;;;;13.50;9.50;;;;;;;;;;5021695;28;20479;-72
2022/04/11 12:56:35;;;;;;;13.85;10.15;;;;;;;;;;5022534;28;20029;-73
2022/04/11 12:59:00;;;;;;;12.25;9.45;;;;;;;;;;5021844;28;20087;-73
2022/04/11 13:01:45;;;;;;;12.50;9.77;;;;;;;;;;5023344;28;20041;-72
2022/04/11 13:04:11;;;;;;;13.48;9.23;;;;;;;;;;5021222;28;20025;-71
2022/04/11 13:06:36;;;;;;;11.75;9.27;;;;;;;;;;5020537;28;20029;-70
2022/04/11 13:09:02;;;;;;;12.65;9.65;;;;;;;;;;5020566;28;20389;-68
2022/04/11 13:11:27;;;;;;;12.65;9.40;;;;;;;;;;5019932;28;20041;-68
2022/04/11 13:13:52;;;;;;;11.80;9.30;;;;;;;;;;5020342;28;20029;-71
2022/04/11 13:19:02;;;;;;;15.45;9.93;;;;;;;;;;5021081;28;20068;-69
2022/04/11 13:21:28;;;;;;;14.15;9.52;;;;;;;;;;5022324;28;20045;-68
2022/04/11 13:23:53;;;;;;;11.43;9.23;;;;;;;;;;5020252;28;20028;-69
2022/04/11 13:26:18;;;;;;;14.23;9.38;;;;;;;;;;5021184;28;20034;-69
2022/04/11 13:28:44;;;;;;;12.85;9.30;;;;;;;;;;5019857;28;20065;-72
2022/04/11 13:31:09;;;;;;;12.70;9.68;;;;;;;;;;4991119;28;20299;-69
2022/04/11 13:33:35;;;;;;;14.63;9.52;;;;;;;;;;5020572;28;20033;-72
2022/04/11 13:36:01;;;;;;;14.13;9.43;;;;;;;;;;5018889;28;20032;-69
2022/04/11 13:38:27;;;;;;;13.65;9.70;;;;;;;;;;5018051;28;20567;-70
2022/04/11 13:40:52;;;;;;;14.10;9.40;;;;;;;;;;5018905;28;20036;-69
2022/04/11 13:43:17;;;;;;;14.02;9.90;;;;;;;;;;5018915;28;20577;-72
2022/04/11 13:45:43;;;;;;;13.40;10.48;;;;;;;;;;5018948;28;20151;-72
2022/04/11 13:48:09;;;;;;;12.95;9.18;;;;;;;;;;5020341;28;20078;-71
2022/04/11 13:50:35;;;;;;;13.75;8.95;;;;;;;;;;5052180;28;20032;-70
2022/04/11 13:53:02;;;;;;;10.57;8.23;;;;;;;;;;5019685;28;20030;-69
2022/04/11 13:55:28;;;;;;;13.27;8.60;;;;;;;;;;5021175;28;20022;-70
2022/04/11 13:57:54;;;;;;;11.13;7.57;;;;;;;;;;5028543;28;20021;-69
2022/04/11 14:00:21;;;;;;;9.55;6.72;;;;;;;;;;5020071;28;20040;-72
2022/04/11 14:02:47;;;;;;;8.48;6.50;;;;;;;;;;5019748;28;20453;-72
2022/04/11 14:05:14;;;;;;;8.85;6.22;;;;;;;;;;5023567;28;20028;-72
2022/04/11 14:07:42;;;;;;;8.18;6.15;;;;;;;;;;5048960;28;20294;-72
2022/04/11 14:10:08;;;;;;;9.55;5.20;;;;;;;;;;5017482;28;20467;-73
2022/04/11 14:12:33;;;;;;;8.57;5.43;;;;;;;;;;5018213;28;20330;-73
2022/04/11 14:14:58;;;;;;;9.60;5.45;;;;;;;;;;5021165;28;20017;-73
2022/04/11 14:17:23;;;;;;;10.52;5.72;;;;;;;;;;5017118;28;20052;-73
2022/04/11 14:19:49;;;;;;;7.35;5.45;;;;;;;;;;5020583;28;20107;-73
2022/04/11 14:22:17;;;;;;;8.95;5.47;;;;;;;;;;5018563;28;20049;-75
2022/04/11 14:24:42;;;;;;;9.23;4.93;;;;;;;;;;5018455;28;20048;-74
2022/04/11 14:27:07;;;;;;;8.23;5.10;;;;;;;;;;5005426;28;20500;-73
2022/04/11 14:29:32;;;;;;;8.73;4.93;;;;;;;;;;5020148;28;20099;-73
2022/04/11 14:31:58;;;;;;;8.73;5.25;;;;;;;;;;5023004;28;20025;-73
2022/04/11 14:34:23;;;;;;;9.07;4.70;;;;;;;;;;5018278;28;20025;-73
2022/04/11 14:36:49;;;;;;;8.05;4.68;;;;;;;;;;5050868;28;20043;-73